sensor_id;sensor_type;location;lat;lon;timestamp;pressure;altitude;pressure_sealevel;temperature;humidity
49827;BME280;35715;51.570;6.036;2022-12-18T00:01:21;102750.78;;;-3.70;85.70
49827;BME280;35715;51.570;6.036;2022-12-18T00:03:47;102756.94;;;-3.73;86.43
49827;BME280;35715;51.570;6.036;2022-12-18T00:06:15;102758.78;;;-3.72;86.55
49827;BME280;35715;51.570;6.036;2022-12-18T00:08:41;102756.00;;;-3.74;86.06
49827;BME280;35715;51.570;6.036;2022-12-18T00:11:07;102759.53;;;-3.62;85.50
49827;BME280;35715;51.570;6.036;2022-12-18T00:13:32;102752.91;;;-3.56;85.05
49827;BME280;35715;51.570;6.036;2022-12-18T00:16:17;102753.38;;;-3.59;84.60
49827;BME280;35715;51.570;6.036;2022-12-18T00:18:45;102741.63;;;-3.64;84.42
49827;BME280;35715;51.570;6.036;2022-12-18T00:21:11;102740.44;;;-3.71;84.03
49827;BME280;35715;51.570;6.036;2022-12-18T00:23:37;102743.41;;;-3.74;84.47
49827;BME280;35715;51.570;6.036;2022-12-18T00:26:07;102743.59;;;-3.84;84.71
49827;BME280;35715;51.570;6.036;2022-12-18T00:28:32;102744.75;;;-3.82;84.74
49827;BME280;35715;51.570;6.036;2022-12-18T00:31:05;102736.53;;;-3.69;84.76
49827;BME280;35715;51.570;6.036;2022-12-18T00:33:31;102738.19;;;-3.64;84.17
49827;BME280;35715;51.570;6.036;2022-12-18T00:36:12;102742.53;;;-3.69;84.13
49827;BME280;35715;51.570;6.036;2022-12-18T00:38:37;102744.09;;;-3.69;83.62
49827;BME280;35715;51.570;6.036;2022-12-18T00:41:03;102743.41;;;-3.80;83.73
49827;BME280;35715;51.570;6.036;2022-12-18T00:43:28;102732.59;;;-3.84;84.01
49827;BME280;35715;51.570;6.036;2022-12-18T00:46:06;102726.38;;;-3.92;84.67
49827;BME280;35715;51.570;6.036;2022-12-18T00:48:32;102732.28;;;-3.97;84.94
49827;BME280;35715;51.570;6.036;2022-12-18T00:50:57;102727.50;;;-3.90;84.71
49827;BME280;35715;51.570;6.036;2022-12-18T00:53:22;102726.38;;;-3.92;85.12
49827;BME280;35715;51.570;6.036;2022-12-18T00:56:01;102733.22;;;-3.91;85.13
49827;BME280;35715;51.570;6.036;2022-12-18T00:58:26;102735.59;;;-3.81;84.78
49827;BME280;35715;51.570;6.036;2022-12-18T01:00:51;102737.66;;;-3.84;84.61
49827;BME280;35715;51.570;6.036;2022-12-18T01:03:16;102734.41;;;-3.89;84.72
49827;BME280;35715;51.570;6.036;2022-12-18T01:05:57;102733.94;;;-3.92;85.66
49827;BME280;35715;51.570;6.036;2022-12-18T01:08:22;102742.44;;;-3.86;85.88
49827;BME280;35715;51.570;6.036;2022-12-18T01:10:48;102739.00;;;-3.86;86.42
49827;BME280;35715;51.570;6.036;2022-12-18T01:13:13;102742.94;;;-3.83;86.29
49827;BME280;35715;51.570;6.036;2022-12-18T01:15:39;102739.00;;;-3.86;85.97
49827;BME280;35715;51.570;6.036;2022-12-18T01:18:05;102736.69;;;-3.85;85.51
49827;BME280;35715;51.570;6.036;2022-12-18T01:23:15;102727.25;;;-3.97;84.63
49827;BME280;35715;51.570;6.036;2022-12-18T01:25:57;102730.94;;;-3.95;84.87
49827;BME280;35715;51.570;6.036;2022-12-18T01:28:23;102740.09;;;-3.96;84.39
49827;BME280;35715;51.570;6.036;2022-12-18T01:30:48;102743.53;;;-3.95;84.20
49827;BME280;35715;51.570;6.036;2022-12-18T01:33:31;102743.06;;;-3.93;83.88
49827;BME280;35715;51.570;6.036;2022-12-18T01:35:58;102739.66;;;-3.93;83.54
49827;BME280;35715;51.570;6.036;2022-12-18T01:38:23;102731.19;;;-3.94;83.45
49827;BME280;35715;51.570;6.036;2022-12-18T01:40:48;102738.28;;;-3.91;83.24
49827;BME280;35715;51.570;6.036;2022-12-18T01:43:13;102726.84;;;-3.89;82.89
49827;BME280;35715;51.570;6.036;2022-12-18T01:45:40;102732.09;;;-3.93;82.46
49827;BME280;35715;51.570;6.036;2022-12-18T01:48:24;102732.31;;;-3.92;82.55
49827;BME280;35715;51.570;6.036;2022-12-18T01:50:49;102738.56;;;-3.84;82.27
49827;BME280;35715;51.570;6.036;2022-12-18T01:53:17;102731.03;;;-3.78;82.09
49827;BME280;35715;51.570;6.036;2022-12-18T01:59:07;102732.59;;;-3.79;81.73
49827;BME280;35715;51.570;6.036;2022-12-18T02:01:14;102734.88;;;-3.80;81.59
49827;BME280;35715;51.570;6.036;2022-12-18T02:03:41;102737.22;;;-3.76;81.61
49827;BME280;35715;51.570;6.036;2022-12-18T02:13:29;102727.75;;;-3.88;81.26
49827;BME280;35715;51.570;6.036;2022-12-18T02:18:32;102733.97;;;-3.81;82.07
49827;BME280;35715;51.570;6.036;2022-12-18T02:21:10;102741.75;;;-3.85;83.25
49827;BME280;35715;51.570;6.036;2022-12-18T02:28:52;102732.78;;;-3.88;84.02
49827;BME280;35715;51.570;6.036;2022-12-18T02:31:21;102719.53;;;-3.82;83.66
49827;BME280;35715;51.570;6.036;2022-12-18T02:33:47;102719.03;;;-3.90;83.33
49827;BME280;35715;51.570;6.036;2022-12-18T02:38:44;102721.81;;;-3.89;83.20
49827;BME280;35715;51.570;6.036;2022-12-18T02:41:11;102721.56;;;-3.90;83.41
49827;BME280;35715;51.570;6.036;2022-12-18T02:46:26;102712.53;;;-4.00;82.23
49827;BME280;35715;51.570;6.036;2022-12-18T02:48:52;102710.50;;;-4.02;82.48
49827;BME280;35715;51.570;6.036;2022-12-18T02:51:29;102709.34;;;-3.99;82.31
49827;BME280;35715;51.570;6.036;2022-12-18T02:54:02;102717.81;;;-3.98;82.47
49827;BME280;35715;51.570;6.036;2022-12-18T02:56:45;102716.91;;;-3.99;82.36
49827;BME280;35715;51.570;6.036;2022-12-18T02:59:16;102716.91;;;-3.99;82.49
49827;BME280;35715;51.570;6.036;2022-12-18T03:04:14;102706.56;;;-4.06;84.84
49827;BME280;35715;51.570;6.036;2022-12-18T03:06:43;102701.28;;;-4.13;85.55
49827;BME280;35715;51.570;6.036;2022-12-18T03:09:21;102694.75;;;-4.28;86.22
49827;BME280;35715;51.570;6.036;2022-12-18T03:11:52;102689.38;;;-4.41;86.81
49827;BME280;35715;51.570;6.036;2022-12-18T03:14:37;102696.03;;;-4.41;87.16
49827;BME280;35715;51.570;6.036;2022-12-18T03:17:05;102696.66;;;-4.48;87.02
49827;BME280;35715;51.570;6.036;2022-12-18T03:19:32;102701.03;;;-4.47;87.42
49827;BME280;35715;51.570;6.036;2022-12-18T03:21:58;102695.97;;;-4.47;88.32
49827;BME280;35715;51.570;6.036;2022-12-18T03:24:26;102706.06;;;-4.47;87.96
49827;BME280;35715;51.570;6.036;2022-12-18T03:26:55;102705.19;;;-4.42;87.42
49827;BME280;35715;51.570;6.036;2022-12-18T03:29:27;102703.09;;;-4.44;87.13
49827;BME280;35715;51.570;6.036;2022-12-18T03:31:56;102700.88;;;-4.37;86.37
49827;BME280;35715;51.570;6.036;2022-12-18T03:34:30;102700.22;;;-4.31;86.07
49827;BME280;35715;51.570;6.036;2022-12-18T03:39:31;102707.13;;;-4.24;84.91
49827;BME280;35715;51.570;6.036;2022-12-18T03:49:59;102700.13;;;-4.10;83.54
49827;BME280;35715;51.570;6.036;2022-12-18T03:52:33;102687.25;;;-4.17;83.13
49827;BME280;35715;51.570;6.036;2022-12-18T03:55:01;102688.38;;;-4.20;83.19
49827;BME280;35715;51.570;6.036;2022-12-18T03:57:28;102684.00;;;-4.21;83.32
49827;BME280;35715;51.570;6.036;2022-12-18T03:59:56;102678.34;;;-4.09;83.35
49827;BME280;35715;51.570;6.036;2022-12-18T04:02:24;102677.41;;;-4.15;85.41
49827;BME280;35715;51.570;6.036;2022-12-18T04:04:51;102676.50;;;-4.16;85.70
49827;BME280;35715;51.570;6.036;2022-12-18T04:07:17;102672.16;;;-4.11;86.00
49827;BME280;35715;51.570;6.036;2022-12-18T04:09:43;102668.25;;;-4.15;85.92
49827;BME280;35715;51.570;6.036;2022-12-18T04:12:10;102665.94;;;-4.19;86.35
49827;BME280;35715;51.570;6.036;2022-12-18T04:14:35;102666.84;;;-4.18;86.98
49827;BME280;35715;51.570;6.036;2022-12-18T04:17:05;102658.38;;;-4.19;86.77
49827;BME280;35715;51.570;6.036;2022-12-18T04:19:30;102663.91;;;-4.16;87.22
49827;BME280;35715;51.570;6.036;2022-12-18T04:21:55;102656.31;;;-4.16;87.17
49827;BME280;35715;51.570;6.036;2022-12-18T04:24:21;102650.84;;;-4.13;88.37
49827;BME280;35715;51.570;6.036;2022-12-18T04:26:58;102652.44;;;-4.14;87.53
49827;BME280;35715;51.570;6.036;2022-12-18T04:29:24;102648.09;;;-4.15;87.43
49827;BME280;35715;51.570;6.036;2022-12-18T04:31:49;102649.47;;;-4.11;86.88
49827;BME280;35715;51.570;6.036;2022-12-18T04:34:14;102652.66;;;-4.12;86.88
49827;BME280;35715;51.570;6.036;2022-12-18T04:36:41;102645.56;;;-4.15;85.87
49827;BME280;35715;51.570;6.036;2022-12-18T04:39:06;102642.81;;;-4.16;85.43
49827;BME280;35715;51.570;6.036;2022-12-18T04:41:31;102650.84;;;-4.13;85.77
49827;BME280;35715;51.570;6.036;2022-12-18T04:43:56;102641.72;;;-4.07;87.18
49827;BME280;35715;51.570;6.036;2022-12-18T04:46:23;102642.19;;;-4.04;87.42
49827;BME280;35715;51.570;6.036;2022-12-18T04:48:48;102638.53;;;-4.00;87.49
49827;BME280;35715;51.570;6.036;2022-12-18T04:51:13;102640.41;;;-3.94;87.00
49827;BME280;35715;51.570;6.036;2022-12-18T04:53:39;102642.22;;;-3.93;87.49
49827;BME280;35715;51.570;6.036;2022-12-18T04:56:12;102640.66;;;-3.86;86.56
49827;BME280;35715;51.570;6.036;2022-12-18T04:58:38;102634.50;;;-3.83;86.58
49827;BME280;35715;51.570;6.036;2022-12-18T05:04:27;102642.53;;;-3.74;84.75
49827;BME280;35715;51.570;6.036;2022-12-18T05:06:52;102644.56;;;-3.77;84.35
49827;BME280;35715;51.570;6.036;2022-12-18T05:09:18;102644.34;;;-3.79;83.48
49827;BME280;35715;51.570;6.036;2022-12-18T05:11:43;102649.38;;;-3.79;83.38
49827;BME280;35715;51.570;6.036;2022-12-18T05:14:08;102659.72;;;-3.71;82.55
49827;BME280;35715;51.570;6.036;2022-12-18T05:16:38;102664.97;;;-3.76;82.00
49827;BME280;35715;51.570;6.036;2022-12-18T05:19:03;102668.91;;;-3.72;82.03
49827;BME280;35715;51.570;6.036;2022-12-18T05:21:28;102671.91;;;-3.69;82.15
49827;BME280;35715;51.570;6.036;2022-12-18T05:23:53;102671.88;;;-3.75;81.62
49827;BME280;35715;51.570;6.036;2022-12-18T05:26:31;102684.75;;;-3.67;82.10
49827;BME280;35715;51.570;6.036;2022-12-18T05:28:56;102688.88;;;-3.68;81.97
49827;BME280;35715;51.570;6.036;2022-12-18T05:31:21;102690.94;;;-3.65;81.90
49827;BME280;35715;51.570;6.036;2022-12-18T05:33:46;102701.03;;;-3.65;81.29
49827;BME280;35715;51.570;6.036;2022-12-18T05:36:17;102697.59;;;-3.66;81.14
49827;BME280;35715;51.570;6.036;2022-12-18T05:38:42;102698.78;;;-3.58;81.17
49827;BME280;35715;51.570;6.036;2022-12-18T05:41:08;102692.59;;;-3.60;80.62
49827;BME280;35715;51.570;6.036;2022-12-18T05:43:34;102693.97;;;-3.57;81.29
49827;BME280;35715;51.570;6.036;2022-12-18T05:46:18;102686.59;;;-3.66;81.16
49827;BME280;35715;51.570;6.036;2022-12-18T05:48:44;102693.47;;;-3.65;81.54
49827;BME280;35715;51.570;6.036;2022-12-18T05:51:10;102702.44;;;-3.62;81.30
49827;BME280;35715;51.570;6.036;2022-12-18T05:53:36;102691.41;;;-3.62;81.25
49827;BME280;35715;51.570;6.036;2022-12-18T05:56:20;102682.50;;;-3.60;81.34
49827;BME280;35715;51.570;6.036;2022-12-18T05:58:45;102688.88;;;-3.68;82.39
49827;BME280;35715;51.570;6.036;2022-12-18T06:01:12;102675.13;;;-3.64;82.56
49827;BME280;35715;51.570;6.036;2022-12-18T06:03:38;102669.88;;;-3.60;83.92
49827;BME280;35715;51.570;6.036;2022-12-18T06:08:33;102666.41;;;-3.61;84.70
49827;BME280;35715;51.570;6.036;2022-12-18T06:10:58;102663.22;;;-3.60;84.74
49827;BME280;35715;51.570;6.036;2022-12-18T06:13:24;102647.84;;;-3.61;85.08
49827;BME280;35715;51.570;6.036;2022-12-18T06:15:49;102645.78;;;-3.58;85.00
49827;BME280;35715;51.570;6.036;2022-12-18T06:18:14;102641.22;;;-3.55;85.93
49827;BME280;35715;51.570;6.036;2022-12-18T06:20:39;102629.06;;;-3.52;85.64
49827;BME280;35715;51.570;6.036;2022-12-18T06:23:06;102627.69;;;-3.50;85.97
49827;BME280;35715;51.570;6.036;2022-12-18T06:25:32;102627.00;;;-3.49;85.42
49827;BME280;35715;51.570;6.036;2022-12-18T06:27:58;102630.47;;;-3.43;85.78
49827;BME280;35715;51.570;6.036;2022-12-18T06:30:23;102632.97;;;-3.43;86.12
49827;BME280;35715;51.570;6.036;2022-12-18T06:32:48;102624.50;;;-3.43;84.91
49827;BME280;35715;51.570;6.036;2022-12-18T06:37:51;102631.88;;;-3.39;84.31
49827;BME280;35715;51.570;6.036;2022-12-18T06:40:16;102633.00;;;-3.37;84.96
49827;BME280;35715;51.570;6.036;2022-12-18T06:42:42;102631.16;;;-3.38;84.31
49827;BME280;35715;51.570;6.036;2022-12-18T06:45:07;102625.44;;;-3.37;84.52
49827;BME280;35715;51.570;6.036;2022-12-18T06:47:32;102620.38;;;-3.37;84.51
49827;BME280;35715;51.570;6.036;2022-12-18T06:49:58;102617.84;;;-3.37;84.26
49827;BME280;35715;51.570;6.036;2022-12-18T06:52:23;102611.44;;;-3.41;84.36
49827;BME280;35715;51.570;6.036;2022-12-18T06:54:48;102619.25;;;-3.39;84.33
49827;BME280;35715;51.570;6.036;2022-12-18T06:57:27;102605.69;;;-3.40;84.09
49827;BME280;35715;51.570;6.036;2022-12-18T06:59:52;102605.91;;;-3.38;83.42
49827;BME280;35715;51.570;6.036;2022-12-18T07:02:17;102609.38;;;-3.37;82.91
49827;BME280;35715;51.570;6.036;2022-12-18T07:04:42;102611.91;;;-3.37;82.26
49827;BME280;35715;51.570;6.036;2022-12-18T07:07:09;102621.75;;;-3.33;81.83
49827;BME280;35715;51.570;6.036;2022-12-18T07:09:34;102618.31;;;-3.34;81.88
49827;BME280;35715;51.570;6.036;2022-12-18T07:11:59;102608.00;;;-3.35;82.03
49827;BME280;35715;51.570;6.036;2022-12-18T07:14:24;102609.63;;;-3.36;81.64
49827;BME280;35715;51.570;6.036;2022-12-18T07:16:57;102608.22;;;-3.34;81.53
49827;BME280;35715;51.570;6.036;2022-12-18T07:19:25;102602.50;;;-3.33;81.60
49827;BME280;35715;51.570;6.036;2022-12-18T07:21:50;102602.72;;;-3.31;81.65
49827;BME280;35715;51.570;6.036;2022-12-18T07:24:16;102612.13;;;-3.30;81.10
49827;BME280;35715;51.570;6.036;2022-12-18T07:29:26;102598.59;;;-3.25;80.42
49827;BME280;35715;51.570;6.036;2022-12-18T07:31:52;102590.34;;;-3.18;80.20
49827;BME280;35715;51.570;6.036;2022-12-18T07:34:17;102595.59;;;-3.23;80.47
49827;BME280;35715;51.570;6.036;2022-12-18T07:36:59;102595.81;;;-3.21;80.22
49827;BME280;35715;51.570;6.036;2022-12-18T07:39:25;102594.69;;;-3.23;80.60
49827;BME280;35715;51.570;6.036;2022-12-18T07:41:50;102597.22;;;-3.23;80.55
49827;BME280;35715;51.570;6.036;2022-12-18T07:44:34;102585.28;;;-3.18;80.41
49827;BME280;35715;51.570;6.036;2022-12-18T07:47:00;102581.16;;;-3.24;80.79
49827;BME280;35715;51.570;6.036;2022-12-18T07:49:25;102580.91;;;-3.19;80.63
49827;BME280;35715;51.570;6.036;2022-12-18T07:51:51;102575.41;;;-3.23;80.90
49827;BME280;35715;51.570;6.036;2022-12-18T07:54:16;102573.13;;;-3.15;80.84
49827;BME280;35715;51.570;6.036;2022-12-18T07:56:50;102568.06;;;-3.15;80.74
49827;BME280;35715;51.570;6.036;2022-12-18T07:59:15;102581.38;;;-3.11;80.90
49827;BME280;35715;51.570;6.036;2022-12-18T08:01:40;102560.28;;;-3.11;81.07
49827;BME280;35715;51.570;6.036;2022-12-18T08:04:05;102553.84;;;-3.09;80.64
49827;BME280;35715;51.570;6.036;2022-12-18T08:09:01;102557.50;;;-3.01;80.32
49827;BME280;35715;51.570;6.036;2022-12-18T08:11:27;102557.06;;;-2.99;80.37
49827;BME280;35715;51.570;6.036;2022-12-18T08:13:53;102560.03;;;-2.90;79.84
49827;BME280;35715;51.570;6.036;2022-12-18T08:16:19;102562.56;;;-2.90;79.84
49827;BME280;35715;51.570;6.036;2022-12-18T08:18:45;102549.94;;;-2.90;79.31
49827;BME280;35715;51.570;6.036;2022-12-18T08:21:11;102557.03;;;-2.82;79.40
49827;BME280;35715;51.570;6.036;2022-12-18T08:23:37;102551.75;;;-2.78;79.36
49827;BME280;35715;51.570;6.036;2022-12-18T08:26:03;102565.75;;;-2.80;79.77
49827;BME280;35715;51.570;6.036;2022-12-18T08:28:29;102554.72;;;-2.75;79.70
49827;BME280;35715;51.570;6.036;2022-12-18T08:30:54;102553.56;;;-2.71;79.58
49827;BME280;35715;51.570;6.036;2022-12-18T08:33:19;102547.81;;;-2.64;79.51
49827;BME280;35715;51.570;6.036;2022-12-18T08:35:45;102546.41;;;-2.68;78.71
49827;BME280;35715;51.570;6.036;2022-12-18T08:38:11;102528.06;;;-2.61;79.70
49827;BME280;35715;51.570;6.036;2022-12-18T08:40:36;102536.97;;;-2.52;79.08
49827;BME280;35715;51.570;6.036;2022-12-18T08:43:01;102541.09;;;-2.47;79.44
49827;BME280;35715;51.570;6.036;2022-12-18T08:45:45;102532.59;;;-2.42;79.99
49827;BME280;35715;51.570;6.036;2022-12-18T08:48:10;102537.16;;;-2.39;79.24
49827;BME280;35715;51.570;6.036;2022-12-18T08:50:35;102528.22;;;-2.43;78.42
49827;BME280;35715;51.570;6.036;2022-12-18T08:53:02;102540.59;;;-2.33;78.01
49827;BME280;35715;51.570;6.036;2022-12-18T08:55:31;102549.97;;;-2.26;77.58
49827;BME280;35715;51.570;6.036;2022-12-18T08:57:57;102540.09;;;-2.30;77.02
49827;BME280;35715;51.570;6.036;2022-12-18T09:00:22;102555.72;;;-2.27;77.88
49827;BME280;35715;51.570;6.036;2022-12-18T09:02:47;102549.03;;;-2.21;78.32
49827;BME280;35715;51.570;6.036;2022-12-18T09:05:23;102538.44;;;-2.19;77.48
49827;BME280;35715;51.570;6.036;2022-12-18T09:07:48;102531.53;;;-2.14;77.21
49827;BME280;35715;51.570;6.036;2022-12-18T09:10:14;102526.78;;;-2.24;77.14
49827;BME280;35715;51.570;6.036;2022-12-18T09:12:39;102516.13;;;-2.16;77.25
49827;BME280;35715;51.570;6.036;2022-12-18T09:15:05;102514.94;;;-2.06;78.78
49827;BME280;35715;51.570;6.036;2022-12-18T09:17:31;102515.38;;;-2.03;78.52
49827;BME280;35715;51.570;6.036;2022-12-18T09:19:56;102521.31;;;-1.97;77.40
49827;BME280;35715;51.570;6.036;2022-12-18T09:22:21;102518.75;;;-1.86;78.26
49827;BME280;35715;51.570;6.036;2022-12-18T09:24:46;102515.03;;;-1.82;77.89
49827;BME280;35715;51.570;6.036;2022-12-18T09:27:13;102511.56;;;-1.77;78.32
49827;BME280;35715;51.570;6.036;2022-12-18T09:29:38;102499.34;;;-1.74;77.46
49827;BME280;35715;51.570;6.036;2022-12-18T09:32:04;102512.16;;;-1.67;78.25
49827;BME280;35715;51.570;6.036;2022-12-18T09:34:29;102507.53;;;-1.64;76.93
49827;BME280;35715;51.570;6.036;2022-12-18T09:39:24;102521.16;;;-1.39;75.90
49827;BME280;35715;51.570;6.036;2022-12-18T09:41:51;102522.06;;;-1.38;75.27
49827;BME280;35715;51.570;6.036;2022-12-18T09:44:35;102512.72;;;-1.45;75.11
49827;BME280;35715;51.570;6.036;2022-12-18T09:47:20;102516.34;;;-1.43;75.61
49827;BME280;35715;51.570;6.036;2022-12-18T09:49:49;102511.72;;;-1.40;75.97
49827;BME280;35715;51.570;6.036;2022-12-18T09:54:45;102523.59;;;-1.28;75.40
49827;BME280;35715;51.570;6.036;2022-12-18T09:57:20;102518.22;;;-1.18;75.83
49827;BME280;35715;51.570;6.036;2022-12-18T09:59:51;102519.00;;;-1.06;74.35
49827;BME280;35715;51.570;6.036;2022-12-18T10:02:19;102524.25;;;-0.99;73.83
49827;BME280;35715;51.570;6.036;2022-12-18T10:04:48;102513.69;;;-1.02;72.91
49827;BME280;35715;51.570;6.036;2022-12-18T10:07:20;102509.22;;;-0.92;72.46
49827;BME280;35715;51.570;6.036;2022-12-18T10:12:20;102496.16;;;-0.58;72.63
49827;BME280;35715;51.570;6.036;2022-12-18T10:15:01;102486.16;;;-0.32;71.96
49827;BME280;35715;51.570;6.036;2022-12-18T10:27:46;102462.19;;;0.16;68.67
49827;BME280;35715;51.570;6.036;2022-12-18T10:30:12;102463.84;;;0.15;68.94
49827;BME280;35715;51.570;6.036;2022-12-18T10:32:38;102467.53;;;0.30;67.84
49827;BME280;35715;51.570;6.036;2022-12-18T10:35:04;102456.63;;;0.31;68.58
49827;BME280;35715;51.570;6.036;2022-12-18T10:37:29;102468.78;;;0.21;67.23
49827;BME280;35715;51.570;6.036;2022-12-18T10:43:05;102468.00;;;0.28;68.80
49827;BME280;35715;51.570;6.036;2022-12-18T10:45:31;102467.00;;;0.33;68.26
49827;BME280;35715;51.570;6.036;2022-12-18T10:47:58;102467.19;;;0.22;67.22
49827;BME280;35715;51.570;6.036;2022-12-18T10:50:36;102464.53;;;0.14;69.12
49827;BME280;35715;51.570;6.036;2022-12-18T10:53:03;102462.66;;;0.01;68.44
49827;BME280;35715;51.570;6.036;2022-12-18T10:55:38;102448.06;;;0.05;69.46
49827;BME280;35715;51.570;6.036;2022-12-18T10:58:16;102448.41;;;-0.05;68.58
49827;BME280;35715;51.570;6.036;2022-12-18T11:00:44;102434.56;;;0.12;68.69
49827;BME280;35715;51.570;6.036;2022-12-18T11:06:10;102424.88;;;0.28;67.58
49827;BME280;35715;51.570;6.036;2022-12-18T11:08:36;102431.50;;;0.46;67.22
49827;BME280;35715;51.570;6.036;2022-12-18T11:11:02;102421.41;;;0.40;66.84
49827;BME280;35715;51.570;6.036;2022-12-18T11:13:28;102407.78;;;0.27;68.00
49827;BME280;35715;51.570;6.036;2022-12-18T11:15:55;102401.19;;;0.22;69.40
49827;BME280;35715;51.570;6.036;2022-12-18T11:18:28;102394.38;;;0.15;69.32
49827;BME280;35715;51.570;6.036;2022-12-18T11:21:08;102388.28;;;0.07;68.30
49827;BME280;35715;51.570;6.036;2022-12-18T11:23:34;102394.56;;;0.16;68.80
49827;BME280;35715;51.570;6.036;2022-12-18T11:26:04;102386.88;;;0.22;68.95
49827;BME280;35715;51.570;6.036;2022-12-18T11:28:47;102380.97;;;0.16;68.97
49827;BME280;35715;51.570;6.036;2022-12-18T11:36:44;102387.28;;;0.12;68.64
49827;BME280;35715;51.570;6.036;2022-12-18T11:41:55;102371.53;;;0.15;69.15
49827;BME280;35715;51.570;6.036;2022-12-18T11:44:40;102366.66;;;0.16;69.86
49827;BME280;35715;51.570;6.036;2022-12-18T11:47:24;102369.59;;;0.20;69.59
49827;BME280;35715;51.570;6.036;2022-12-18T11:49:53;102377.00;;;0.18;68.97
49827;BME280;35715;51.570;6.036;2022-12-18T11:52:27;102386.25;;;0.17;68.50
49827;BME280;35715;51.570;6.036;2022-12-18T11:54:56;102380.56;;;0.13;68.28
49827;BME280;35715;51.570;6.036;2022-12-18T11:57:42;102384.03;;;0.26;68.98
49827;BME280;35715;51.570;6.036;2022-12-18T12:05:12;102378.34;;;0.22;67.92
49827;BME280;35715;51.570;6.036;2022-12-18T12:10:22;102371.84;;;0.24;68.55
49827;BME280;35715;51.570;6.036;2022-12-18T12:13:03;102365.66;;;0.22;67.63
49827;BME280;35715;51.570;6.036;2022-12-18T12:18:27;102345.16;;;0.20;67.57
49827;BME280;35715;51.570;6.036;2022-12-18T12:21:00;102347.69;;;0.33;67.27
49827;BME280;35715;51.570;6.036;2022-12-18T12:28:58;102333.97;;;0.25;69.39
49827;BME280;35715;51.570;6.036;2022-12-18T12:31:44;102340.97;;;0.21;70.26
49827;BME280;35715;51.570;6.036;2022-12-18T12:34:17;102329.09;;;0.27;69.94
49827;BME280;35715;51.570;6.036;2022-12-18T12:36:57;102332.03;;;0.30;69.78
49827;BME280;35715;51.570;6.036;2022-12-18T12:39:29;102322.09;;;0.31;70.60
49827;BME280;35715;51.570;6.036;2022-12-18T12:41:55;102321.78;;;0.35;69.35
49827;BME280;35715;51.570;6.036;2022-12-18T12:44:42;102319.06;;;0.34;68.29
49827;BME280;35715;51.570;6.036;2022-12-18T12:47:20;102311.75;;;0.43;69.18
49827;BME280;35715;51.570;6.036;2022-12-18T12:49:47;102309.00;;;0.28;68.84
49827;BME280;35715;51.570;6.036;2022-12-18T12:54:42;102298.25;;;0.24;69.86
49827;BME280;35715;51.570;6.036;2022-12-18T13:08:04;102283.13;;;0.31;68.95
49827;BME280;35715;51.570;6.036;2022-12-18T13:15:33;102278.63;;;0.35;69.06
49827;BME280;35715;51.570;6.036;2022-12-18T13:20:34;102254.69;;;0.33;68.38
49827;BME280;35715;51.570;6.036;2022-12-18T13:23:01;102252.16;;;0.33;68.81
49827;BME280;35715;51.570;6.036;2022-12-18T13:25:57;102247.47;;;0.37;69.45
49827;BME280;35715;51.570;6.036;2022-12-18T13:28:23;102243.28;;;0.37;68.87
49827;BME280;35715;51.570;6.036;2022-12-18T13:31:08;102236.72;;;0.32;69.39
49827;BME280;35715;51.570;6.036;2022-12-18T13:40:58;102236.38;;;0.36;68.27
49827;BME280;35715;51.570;6.036;2022-12-18T13:44:10;102226.03;;;0.34;67.50
49827;BME280;35715;51.570;6.036;2022-12-18T13:51:25;102226.44;;;0.38;68.60
49827;BME280;35715;51.570;6.036;2022-12-18T13:53:52;102224.81;;;0.38;68.02
49827;BME280;35715;51.570;6.036;2022-12-18T13:56:29;102231.41;;;0.43;68.02
49827;BME280;35715;51.570;6.036;2022-12-18T14:01:29;102226.81;;;0.53;67.72
49827;BME280;35715;51.570;6.036;2022-12-18T14:04:11;102226.91;;;0.48;66.34
49827;BME280;35715;51.570;6.036;2022-12-18T14:06:38;102223.06;;;0.44;66.40
49827;BME280;35715;51.570;6.036;2022-12-18T14:09:04;102213.72;;;0.50;67.40
49827;BME280;35715;51.570;6.036;2022-12-18T14:11:29;102207.09;;;0.45;66.61
49827;BME280;35715;51.570;6.036;2022-12-18T14:13:56;102204.97;;;0.48;66.63
49827;BME280;35715;51.570;6.036;2022-12-18T14:16:35;102212.06;;;0.51;65.69
49827;BME280;35715;51.570;6.036;2022-12-18T14:19:01;102206.28;;;0.52;66.16
49827;BME280;35715;51.570;6.036;2022-12-18T14:21:28;102214.41;;;0.49;66.67
49827;BME280;35715;51.570;6.036;2022-12-18T14:24:04;102216.66;;;0.53;67.01
49827;BME280;35715;51.570;6.036;2022-12-18T14:28:59;102206.09;;;0.50;65.91
49827;BME280;35715;51.570;6.036;2022-12-18T14:31:26;102205.50;;;0.46;65.16
49827;BME280;35715;51.570;6.036;2022-12-18T14:33:52;102197.50;;;0.43;66.20
49827;BME280;35715;51.570;6.036;2022-12-18T14:36:23;102203.56;;;0.50;66.05
49827;BME280;35715;51.570;6.036;2022-12-18T14:38:52;102205.69;;;0.47;65.27
49827;BME280;35715;51.570;6.036;2022-12-18T14:41:19;102206.00;;;0.43;65.67
49827;BME280;35715;51.570;6.036;2022-12-18T14:43:45;102200.03;;;0.43;66.07
49827;BME280;35715;51.570;6.036;2022-12-18T14:51:52;102222.13;;;0.57;64.10
49827;BME280;35715;51.570;6.036;2022-12-18T14:54:19;102221.63;;;0.59;64.62
49827;BME280;35715;51.570;6.036;2022-12-18T14:57:00;102223.13;;;0.64;64.87
49827;BME280;35715;51.570;6.036;2022-12-18T14:59:27;102217.91;;;0.70;64.91
49827;BME280;35715;51.570;6.036;2022-12-18T15:04:34;102205.41;;;0.72;64.93
49827;BME280;35715;51.570;6.036;2022-12-18T15:07:16;102187.56;;;0.64;64.46
49827;BME280;35715;51.570;6.036;2022-12-18T15:09:44;102198.03;;;0.60;64.74
49827;BME280;35715;51.570;6.036;2022-12-18T15:12:39;102203.09;;;0.60;64.71
49827;BME280;35715;51.570;6.036;2022-12-18T15:17:56;102194.50;;;0.73;64.54
49827;BME280;35715;51.570;6.036;2022-12-18T15:20:21;102200.44;;;0.66;64.99
49827;BME280;35715;51.570;6.036;2022-12-18T15:22:46;102181.78;;;0.65;64.97
49827;BME280;35715;51.570;6.036;2022-12-18T15:28:24;102190.56;;;0.55;64.14
49827;BME280;35715;51.570;6.036;2022-12-18T15:33:26;102174.25;;;0.60;64.37
49827;BME280;35715;51.570;6.036;2022-12-18T15:38:37;102181.50;;;0.57;64.99
49827;BME280;35715;51.570;6.036;2022-12-18T15:41:02;102177.97;;;0.69;65.39